Airfield :
LOGIN :

Register | Disclaimer

   EN    FR    IT 

 










Legend :    VFR   Marginal VFR   IFR   Intensive IFR   Very Intensive IFR
Visi :
Ceiling :
>= 8 km
>= 3000ft
5 to 8 km
1000 to 3000 ft
1500m to 5 km
500 to 1000 ft
800 to 1500m
200 to 500 ft
< 800m
< 200 ft
Symbols :   Thunderstorms  Fog  Heavy snow  Heavy precipitations  Wind > 20 kt
SIGMETs :     Misc.  Thunderstorms  Icing  Turbulence  Mountain Waves  Volcanic Ashes






- Airport Elevation : 659 ft
- IATA code : LGG


EBLG - Liège

CURRENT METAR :
  • 070320Z 27008KT 2500 BR SCT002 BKN003 03/03 Q1018 NOSIG

EXPIRED METARs :
  • 070250Z 27007KT 2800 BR -SHRA SCT003 BKN004 03/02 Q1018 TEMPO 2500 BR BKN003
  • 070220Z 26008KT 3200 BR -SHRA SCT003 BKN005 03/03 Q1018 TEMPO 2500 BR BKN003
  • 070150Z 27007KT 3600 BR SCT003 BKN004 03/03 Q1018 TEMPO 2500 BR
  • 070120Z 26007KT 3600 BR SCT003 BKN004 03/02 Q1018 TEMPO 2500 BR
  • 070050Z 26008KT 4300 BR SCT003 BKN005 03/02 Q1018 TEMPO 2500 BR BKN004

TAF COR TAF EBLG
Valid from the 07 at 00:00 until the 08 at 06:00 UTC


062317Z 0700/0806 27005KT 9999 FEW012 SCT020
TEMPO 0700/0710 2500 BR BKN004
TEMPO 0721/0806 2000 BR BKN004
PROB30
TEMPO 0722/0806 1200 BCFG BKN002



MET'MAP, your aeronautical weather chart ! - Copyright ORBIFLY December 2007 - Disclaimer

ORBIFLY MET'MAP TEAM :

Programming & Development : Alexandra Zaïnal
Original concept : Baudouin d'Aumeries
Technical & hardware support : Manuel Goepfert
Assistance : Marc-Olivier Méhu




SOURCES & CREDITS :

   NOAA